Time;durP1;ratioP1;P1;durP2;ratioP2;P2;SDS_P1;SDS_P2;PMS_P1;PMS_P2;Temp;Humidity;BMP_temperature;BMP_pressure;BME280_temperature;BME280_humidity;BME280_pressure;Samples;Min_cycle;Max_cycle;Signal;HPM_P1;HPM_P2
2023/06/07 00:02:17;;;;;;;8.03;5.73;;;;;;;17.55;53.22;96296.63;4987873;28;20172;-70
2023/06/07 00:04:45;;;;;;;61.47;10.97;;;;;;;17.51;53.40;96289.84;4989230;28;20191;-70
2023/06/07 00:07:11;;;;;;;9.97;5.20;;;;;;;17.47;53.42;96291.00;4988636;28;20184;-71
2023/06/07 00:09:37;;;;;;;56.27;9.53;;;;;;;17.42;53.50;96289.66;4987916;28;20435;-70
2023/06/07 00:12:04;;;;;;;14.03;5.10;;;;;;;17.45;53.68;96292.91;4987903;28;20467;-70
2023/06/07 00:14:30;;;;;;;9.50;5.10;;;;;;;17.38;53.96;96289.03;4988074;28;20176;-70
2023/06/07 00:16:55;;;;;;;8.07;5.87;;;;;;;17.39;54.09;96285.44;4988322;28;20431;-70
2023/06/07 00:19:24;;;;;;;7.57;5.50;;;;;;;17.44;53.63;96282.44;4988967;28;20219;-70
2023/06/07 00:21:54;;;;;;;15.43;7.00;;;;;;;17.36;53.73;96288.28;4988888;28;20184;-70
2023/06/07 00:24:20;;;;;;;5.80;5.30;;;;;;;17.34;53.99;96272.50;4994457;28;20412;-70
2023/06/07 00:26:46;;;;;;;6.43;4.60;;;;;;;17.18;54.59;96282.53;4999604;28;20490;-70
2023/06/07 00:29:11;;;;;;;5.70;5.20;;;;;;;17.19;54.28;96278.91;4994390;28;20431;-70
2023/06/07 00:31:37;;;;;;;21.53;6.70;;;;;;;17.22;54.11;96278.69;4993483;28;20849;-71
2023/06/07 00:34:03;;;;;;;26.70;6.47;;;;;;;17.11;54.62;96292.72;4990912;28;20545;-70
2023/06/07 00:36:29;;;;;;;21.10;5.97;;;;;;;17.17;54.62;96277.31;4987512;28;20180;-70
2023/06/07 00:38:55;;;;;;;12.43;5.63;;;;;;;17.10;54.54;96280.44;4986884;28;20439;-70
2023/06/07 00:41:20;;;;;;;6.40;4.80;;;;;;;17.14;54.47;96279.22;4986900;28;20200;-69
2023/06/07 00:43:47;;;;;;;8.93;4.67;;;;;;;17.14;54.74;96276.59;4986503;28;20598;-70
2023/06/07 00:46:17;;;;;;;6.77;4.83;;;;;;;17.03;55.26;96287.13;4986786;28;20925;-69
2023/06/07 00:48:42;;;;;;;10.40;4.80;;;;;;;16.95;55.47;96284.16;4986920;28;20470;-69
2023/06/07 00:51:08;;;;;;;6.20;5.27;;;;;;;16.98;55.58;96281.28;4986346;28;21032;-71
2023/06/07 00:53:35;;;;;;;5.47;5.00;;;;;;;16.89;55.07;96281.94;4986462;28;20176;-70
2023/06/07 00:56:00;;;;;;;8.37;5.40;;;;;;;16.99;54.86;96272.41;4987062;28;20650;-69
2023/06/07 00:58:26;;;;;;;6.47;4.70;;;;;;;16.94;55.21;96274.53;4986697;28;20551;-68
2023/06/07 01:00:51;;;;;;;7.90;6.40;;;;;;;16.94;55.23;96274.53;4986656;28;20256;-71
2023/06/07 01:03:17;;;;;;;9.10;6.23;;;;;;;16.83;55.67;96275.28;4988249;28;20602;-70
2023/06/07 01:05:44;;;;;;;18.63;7.00;;;;;;;17.01;55.21;96266.97;4990353;28;20542;-70
2023/06/07 01:08:10;;;;;;;67.20;11.93;;;;;;;16.87;55.63;96268.81;4990393;28;20634;-70
2023/06/07 01:10:36;;;;;;;6.87;5.57;;;;;;;16.95;55.23;96264.78;4990575;28;21074;-70
2023/06/07 01:13:03;;;;;;;9.13;5.63;;;;;;;17.00;54.83;96268.78;4990437;28;20830;-70
2023/06/07 01:15:29;;;;;;;36.73;10.50;;;;;;;16.95;54.20;96267.41;4990139;28;20411;-70
2023/06/07 01:17:57;;;;;;;26.67;6.47;;;;;;;16.95;54.48;96259.47;4990341;28;20422;-70
2023/06/07 01:20:25;;;;;;;5.97;4.90;;;;;;;16.83;54.53;96269.16;4990660;28;20416;-69
2023/06/07 01:22:56;;;;;;;11.00;5.40;;;;;;;16.76;55.30;96266.03;4990235;28;20428;-68
2023/06/07 01:25:22;;;;;;;7.47;5.63;;;;;;;16.72;55.30;96261.91;4990050;28;20412;-70
2023/06/07 01:27:52;;;;;;;12.30;5.80;;;;;;;16.59;55.31;96259.28;4990224;28;20417;-70
2023/06/07 01:30:21;;;;;;;9.30;5.90;;;;;;;16.64;55.24;96251.03;4990292;28;21143;-69
2023/06/07 01:32:48;;;;;;;54.00;11.23;;;;;;;16.65;55.33;96258.88;4990078;28;20459;-69
2023/06/07 01:35:14;;;;;;;8.63;4.67;;;;;;;16.45;56.08;96254.94;4990043;28;20416;-69
2023/06/07 01:37:41;;;;;;;9.67;6.10;;;;;;;16.40;56.27;96248.28;4980902;28;20432;-69
2023/06/07 01:40:08;;;;;;;48.57;9.47;;;;;;;16.40;56.14;96254.44;4970564;28;20436;-70
2023/06/07 01:42:35;;;;;;;28.17;8.30;;;;;;;16.29;56.53;96252.50;4978776;28;20442;-69
2023/06/07 01:45:03;;;;;;;9.83;5.60;;;;;;;16.35;56.21;96259.19;4987832;28;20958;-70
2023/06/07 01:47:28;;;;;;;6.00;5.40;;;;;;;16.36;56.36;96252.94;4970019;28;20424;-70
2023/06/07 01:49:54;;;;;;;6.10;5.50;;;;;;;16.40;55.86;96254.44;4970183;28;20437;-70
2023/06/07 01:52:19;;;;;;;6.47;5.87;;;;;;;16.33;56.20;96257.63;4987479;28;20197;-70
2023/06/07 01:54:46;;;;;;;9.20;6.23;;;;;;;16.38;56.41;96258.13;4989430;28;20188;-70
2023/06/07 01:57:29;;;;;;;20.70;6.77;;;;;;;16.38;56.42;96266.09;4990068;28;20172;-69
2023/06/07 02:00:05;;;;;;;12.43;6.23;;;;;;;16.25;56.65;96261.63;4990405;28;21044;-70
2023/06/07 02:02:49;;;;;;;8.50;6.23;;;;;;;16.13;56.62;96246.56;4990245;28;20416;-69
2023/06/07 02:05:24;;;;;;;6.70;6.10;;;;;;;16.18;56.69;96248.91;4988448;28;20415;-70
2023/06/07 02:07:53;;;;;;;19.93;7.27;;;;;;;16.09;57.07;96247.75;4988310;28;20756;-69
2023/06/07 02:10:25;;;;;;;32.53;9.43;;;;;;;16.13;56.88;96257.16;4988968;28;20436;-70
2023/06/07 02:12:53;;;;;;;24.50;8.20;;;;;;;16.18;56.63;96262.13;4989869;28;20468;-70
2023/06/07 02:15:19;;;;;;;19.53;6.70;;;;;;;16.26;56.07;96252.72;4987779;28;20503;-69
2023/06/07 02:17:48;;;;;;;8.20;5.73;;;;;;;16.42;55.58;96252.53;4989089;28;20644;-67
2023/06/07 02:20:15;;;;;;;13.00;6.80;;;;;;;16.14;56.77;96248.28;4989335;28;20459;-69
2023/06/07 02:22:40;;;;;;;11.40;6.50;;;;;;;16.25;56.22;96247.53;4988922;28;21310;-69
2023/06/07 02:25:06;;;;;;;13.20;6.43;;;;;;;16.28;56.25;96247.34;4970842;28;20520;-70
2023/06/07 02:27:31;;;;;;;20.87;7.40;;;;;;;16.15;56.22;96242.03;4969635;28;20561;-70
2023/06/07 02:29:57;;;;;;;43.97;10.77;;;;;;;16.18;56.44;96248.91;4970789;28;20252;-69
2023/06/07 02:32:22;;;;;;;28.03;9.90;;;;;;;16.25;55.86;96248.41;4969317;28;20241;-70
2023/06/07 02:34:48;;;;;;;21.00;7.20;;;;;;;16.17;56.35;96240.13;4969510;28;20281;-69
2023/06/07 02:37:15;;;;;;;44.87;9.10;;;;;;;16.14;55.96;96245.63;4969818;28;20188;-70
2023/06/07 02:39:40;;;;;;;9.13;6.30;;;;;;;16.19;55.91;96240.88;4969503;28;20440;-70
2023/06/07 02:42:06;;;;;;;10.00;6.63;;;;;;;16.13;56.35;96246.56;4969059;28;20910;-70
2023/06/07 02:44:31;;;;;;;8.00;6.17;;;;;;;15.87;56.76;96243.94;4968745;28;20185;-70
2023/06/07 02:46:57;;;;;;;13.30;6.07;;;;;;;15.86;56.94;96244.84;4969069;28;20240;-70
2023/06/07 02:49:22;;;;;;;11.83;7.03;;;;;;;15.74;57.79;96244.84;4968951;28;20236;-70
2023/06/07 02:51:47;;;;;;;11.60;6.33;;;;;;;15.77;57.31;96240.19;4982335;28;20193;-69
2023/06/07 02:54:16;;;;;;;14.40;6.80;;;;;;;15.82;57.21;96243.38;4988198;28;20185;-70
2023/06/07 02:56:41;;;;;;;11.07;7.43;;;;;;;16.00;56.86;96235.16;4988810;28;20169;-70
2023/06/07 02:59:06;;;;;;;14.43;6.90;;;;;;;15.94;56.75;96239.03;4988275;28;20502;-70
2023/06/07 03:01:33;;;;;;;41.93;10.90;;;;;;;15.90;56.94;96239.34;4996108;28;20268;-69
2023/06/07 03:03:58;;;;;;;13.37;7.27;;;;;;;15.99;56.78;96233.44;4988382;28;20208;-72
2023/06/07 03:06:29;;;;;;;13.37;7.07;;;;;;;16.01;56.63;96244.78;4988442;28;20477;-70
2023/06/07 03:08:55;;;;;;;17.20;6.93;;;;;;;15.86;57.36;96244.84;4988371;28;20200;-68
2023/06/07 03:11:21;;;;;;;20.37;8.63;;;;;;;15.96;57.02;96245.09;4988514;28;20462;-70
2023/06/07 03:13:46;;;;;;;12.40;7.60;;;;;;;15.79;57.22;96240.94;4988931;28;20173;-71
2023/06/07 03:16:12;;;;;;;9.83;6.80;;;;;;;15.86;56.88;96249.31;4988864;28;20177;-70
2023/06/07 03:18:37;;;;;;;8.10;6.20;;;;;;;15.63;57.76;96254.28;4988360;28;20200;-70
2023/06/07 03:21:02;;;;;;;8.13;6.90;;;;;;;15.62;57.74;96255.25;4988390;28;20179;-70
2023/06/07 03:23:29;;;;;;;9.47;7.77;;;;;;;15.74;57.33;96258.06;4987463;28;20192;-68
2023/06/07 03:25:58;;;;;;;10.53;8.23;;;;;;;15.61;57.60;96252.69;4987769;28;20912;-70
2023/06/07 03:28:24;;;;;;;19.83;8.00;;;;;;;15.49;57.98;96264.94;4987673;28;20920;-70
2023/06/07 03:30:49;;;;;;;8.67;7.03;;;;;;;15.30;58.66;96256.53;4987779;28;20444;-69
2023/06/07 03:33:15;;;;;;;11.30;7.53;;;;;;;15.38;58.55;96257.72;4987837;28;20176;-70
2023/06/07 03:35:41;;;;;;;20.53;7.40;;;;;;;15.41;58.53;96257.53;4988246;28;20199;-70
2023/06/07 03:38:07;;;;;;;20.73;8.03;;;;;;;15.37;58.77;96263.94;4987791;28;20180;-70
2023/06/07 03:40:32;;;;;;;26.13;11.27;;;;;;;15.53;58.24;96260.31;4988077;28;20426;-70
2023/06/07 03:42:59;;;;;;;19.13;7.63;;;;;;;15.48;58.61;96265.06;4987842;28;20169;-69
2023/06/07 03:45:24;;;;;;;19.97;8.87;;;;;;;15.58;58.03;96264.34;4987397;28;20196;-69
2023/06/07 03:47:50;;;;;;;16.70;7.17;;;;;;;15.27;58.58;96270.78;4987489;28;20431;-70
2023/06/07 03:50:15;;;;;;;27.97;8.70;;;;;;;15.49;58.46;96270.22;4987410;28;20195;-70
2023/06/07 03:52:41;;;;;;;8.13;7.23;;;;;;;15.55;58.22;96282.22;4987621;28;20208;-70
2023/06/07 03:55:07;;;;;;;20.90;7.63;;;;;;;15.69;57.62;96276.88;4987053;28;20267;-70
2023/06/07 03:57:32;;;;;;;13.27;7.67;;;;;;;15.91;56.92;96284.25;4987620;28;20173;-70
2023/06/07 04:00:05;;;;;;;13.20;6.33;;;;;;;16.07;56.63;96268.19;4987428;28;20197;-70
2023/06/07 04:02:30;;;;;;;24.23;8.60;;;;;;;16.03;56.29;96266.69;4988202;28;20590;-69
2023/06/07 04:04:55;;;;;;;17.10;8.37;;;;;;;16.02;56.69;96272.94;4997068;28;20430;-69
2023/06/07 04:07:21;;;;;;;20.40;8.50;;;;;;;16.05;56.54;96270.94;4996696;28;20536;-71
2023/06/07 04:09:48;;;;;;;10.00;7.67;;;;;;;16.58;55.07;96276.13;4991107;28;20210;-69
2023/06/07 04:12:13;;;;;;;23.57;10.07;;;;;;;16.52;54.86;96276.56;4989146;28;20201;-69
2023/06/07 04:14:39;;;;;;;58.97;11.10;;;;;;;16.64;54.59;96278.34;4988225;28;20989;-69
2023/06/07 04:17:04;;;;;;;40.10;10.40;;;;;;;16.89;53.93;96272.22;4987795;28;20188;-70
2023/06/07 04:19:30;;;;;;;29.03;8.97;;;;;;;16.83;54.15;96267.34;4987404;28;20270;-70
2023/06/07 04:21:55;;;;;;;12.10;7.50;;;;;;;16.84;53.92;96268.16;4987038;28;20271;-70
2023/06/07 04:24:20;;;;;;;24.60;9.20;;;;;;;16.93;53.52;96264.88;4987019;28;20177;-71
2023/06/07 04:26:47;;;;;;;21.47;8.90;;;;;;;17.03;53.28;96268.56;4987102;28;20173;-70
2023/06/07 04:29:14;;;;;;;24.47;8.67;;;;;;;17.18;53.35;96271.09;4987017;28;20678;-69
2023/06/07 04:31:41;;;;;;;18.97;10.27;;;;;;;17.16;53.16;96270.34;4987070;28;20444;-70
2023/06/07 04:34:09;;;;;;;49.67;11.33;;;;;;;17.19;53.07;96270.09;4986810;28;20927;-69
2023/06/07 04:36:37;;;;;;;22.60;8.57;;;;;;;17.24;52.74;96266.16;4985650;28;20420;-70
2023/06/07 04:39:05;;;;;;;25.47;8.83;;;;;;;17.41;52.47;96267.59;4990036;28;20936;-70
2023/06/07 04:41:32;;;;;;;27.37;9.73;;;;;;;17.40;52.49;96265.06;4991001;28;20447;-68
2023/06/07 04:44:00;;;;;;;23.23;9.37;;;;;;;17.59;51.88;96268.03;4991106;28;20412;-69
2023/06/07 04:46:28;;;;;;;26.37;9.43;;;;;;;17.52;51.71;96272.94;4991197;28;20714;-70
2023/06/07 04:48:55;;;;;;;23.37;9.67;;;;;;;17.50;52.22;96274.00;4990948;28;20424;-69
2023/06/07 04:51:22;;;;;;;13.33;8.80;;;;;;;17.75;51.64;96270.41;4989278;28;20460;-70
2023/06/07 04:53:48;;;;;;;23.83;9.83;;;;;;;17.87;51.14;96269.50;4990418;28;20442;-70
2023/06/07 04:56:13;;;;;;;28.73;9.70;;;;;;;18.11;50.16;96281.88;4991492;28;20404;-71
2023/06/07 04:58:40;;;;;;;23.40;8.63;;;;;;;18.15;50.30;96286.84;4989787;28;20720;-70
2023/06/07 05:01:09;;;;;;;16.20;9.50;;;;;;;18.19;50.00;96282.16;4990560;28;20196;-70
2023/06/07 05:03:36;;;;;;;42.53;11.30;;;;;;;18.26;50.01;96277.22;4990537;28;20415;-70
2023/06/07 05:06:04;;;;;;;23.93;11.50;;;;;;;18.28;50.40;96273.47;4990585;28;20407;-70
2023/06/07 05:08:29;;;;;;;29.97;11.43;;;;;;;18.33;50.12;96281.09;4990370;28;20522;-69
2023/06/07 05:10:55;;;;;;;20.87;8.97;;;;;;;18.46;49.99;96268.56;4990409;28;21271;-70
2023/06/07 05:13:20;;;;;;;11.60;9.17;;;;;;;18.75;49.25;96271.59;4990573;28;20180;-71
2023/06/07 05:15:46;;;;;;;26.70;10.60;;;;;;;18.77;49.62;96272.34;4990924;28;20646;-70
2023/06/07 05:18:12;;;;;;;26.03;8.97;;;;;;;18.93;49.41;96282.63;4990784;28;20184;-68
2023/06/07 05:20:37;;;;;;;12.60;7.97;;;;;;;18.93;49.28;96279.13;4989274;28;20181;-70
2023/06/07 05:23:03;;;;;;;12.57;8.13;;;;;;;18.76;50.46;96268.00;4990324;28;20582;-69
2023/06/07 05:25:30;;;;;;;8.50;6.77;;;;;;;19.15;50.31;96273.75;4989996;28;20266;-69
2023/06/07 05:27:55;;;;;;;18.50;8.27;;;;;;;19.30;49.86;96266.38;4989821;28;20271;-70
2023/06/07 05:30:20;;;;;;;20.63;8.93;;;;;;;18.91;50.50;96275.75;4991779;28;20523;-69
2023/06/07 05:32:48;;;;;;;10.20;8.30;;;;;;;18.83;51.33;96274.53;4992484;28;20196;-70
2023/06/07 05:35:13;;;;;;;41.20;12.23;;;;;;;19.29;50.47;96274.47;4993098;28;20172;-70
2023/06/07 05:37:39;;;;;;;27.80;9.10;;;;;;;19.50;49.55;96280.72;4993521;28;20411;-70
2023/06/07 05:40:07;;;;;;;35.87;10.40;;;;;;;18.81;51.64;96286.25;4992374;28;20188;-70
2023/06/07 05:42:38;;;;;;;19.07;8.33;;;;;;;18.94;52.11;96286.13;4989815;28;20541;-70
2023/06/07 05:45:04;;;;;;;12.93;8.70;;;;;;;19.27;51.43;96277.25;4988159;28;20424;-70
2023/06/07 05:47:30;;;;;;;28.00;9.47;;;;;;;19.32;51.85;96284.88;4989914;28;20419;-69
2023/06/07 05:49:56;;;;;;;24.23;12.10;;;;;;;18.88;52.26;96279.50;4988536;28;20427;-70
2023/06/07 05:52:21;;;;;;;23.17;8.30;;;;;;;18.61;53.86;96290.44;4989591;28;20456;-69
2023/06/07 05:54:49;;;;;;;9.97;9.03;;;;;;;18.98;54.00;96292.91;4989550;28;20263;-70
2023/06/07 05:57:15;;;;;;;8.13;7.30;;;;;;;19.42;52.91;96288.50;4990879;28;20234;-70
2023/06/07 05:59:41;;;;;;;53.50;11.53;;;;;;;20.49;51.71;96266.22;4989338;28;20440;-69
2023/06/07 06:02:07;;;;;;;11.40;8.67;;;;;;;19.94;50.49;96278.91;4989542;28;20173;-69
2023/06/07 06:04:32;;;;;;;10.07;8.23;;;;;;;19.12;53.40;96278.50;4989929;28;20176;-71
2023/06/07 06:06:58;;;;;;;14.20;9.53;;;;;;;19.52;52.31;96280.59;4991953;28;20229;-72
2023/06/07 06:09:23;;;;;;;10.10;9.10;;;;;;;19.50;52.24;96279.88;4992528;28;20197;-73
2023/06/07 06:11:49;;;;;;;24.30;10.23;;;;;;;20.01;51.58;96274.75;4991520;28;20685;-70
2023/06/07 06:14:15;;;;;;;36.77;13.30;;;;;;;20.43;49.98;96266.78;4991976;28;20243;-72
2023/06/07 06:16:40;;;;;;;11.47;9.97;;;;;;;20.20;50.13;96270.53;4992290;28;20455;-71
2023/06/07 06:19:05;;;;;;;10.80;9.40;;;;;;;20.16;50.53;96264.63;4992723;28;20228;-74
2023/06/07 06:21:31;;;;;;;21.97;8.70;;;;;;;20.60;49.99;96265.34;4990567;28;20172;-73
2023/06/07 06:23:56;;;;;;;8.80;7.80;;;;;;;21.21;47.93;96266.25;4989772;28;20184;-71
2023/06/07 06:26:22;;;;;;;9.17;7.73;;;;;;;20.54;49.62;96273.81;4993392;28;20169;-72
2023/06/07 06:28:48;;;;;;;8.83;8.03;;;;;;;19.73;51.84;96283.34;4993113;28;20192;-72
2023/06/07 06:31:13;;;;;;;8.67;7.80;;;;;;;20.17;51.12;96270.78;4993837;28;20454;-72
2023/06/07 06:33:38;;;;;;;9.00;8.30;;;;;;;19.88;51.80;96279.41;4996011;28;20185;-72
2023/06/07 06:36:04;;;;;;;12.37;9.50;;;;;;;19.67;52.66;96282.00;4995902;28;20189;-72
2023/06/07 06:38:29;;;;;;;13.50;8.00;;;;;;;20.16;52.04;96275.28;4993105;28;20271;-72
2023/06/07 06:40:55;;;;;;;26.13;8.90;;;;;;;21.22;49.18;96274.16;4993544;28;20200;-73
2023/06/07 06:43:20;;;;;;;12.80;8.97;;;;;;;20.58;50.55;96280.63;4993967;28;20540;-73
2023/06/07 06:45:46;;;;;;;9.40;8.50;;;;;;;20.73;50.34;96281.94;4991548;28;20187;-73
2023/06/07 06:48:12;;;;;;;11.70;7.10;;;;;;;21.44;48.46;96273.09;4991187;28;20223;-73
2023/06/07 06:50:37;;;;;;;12.23;7.27;;;;;;;22.22;46.66;96277.66;4990058;28;20543;-71
2023/06/07 06:53:03;;;;;;;12.23;11.13;;;;;;;21.34;48.42;96274.88;4991482;28;20193;-73
2023/06/07 06:55:29;;;;;;;18.63;16.80;;;;;;;20.74;50.27;96285.50;4991848;28;20173;-73
2023/06/07 06:57:55;;;;;;;12.23;11.23;;;;;;;20.19;51.92;96274.16;4992367;28;20369;-69
2023/06/07 07:00:20;;;;;;;10.53;8.67;;;;;;;20.75;50.86;96279.16;4991967;28;20644;-71
2023/06/07 07:02:46;;;;;;;15.80;14.23;;;;;;;20.46;51.46;96279.81;4991507;28;20404;-72
2023/06/07 07:05:11;;;;;;;10.80;9.90;;;;;;;20.23;52.14;96287.09;4988302;28;20774;-71
2023/06/07 07:07:37;;;;;;;10.10;9.20;;;;;;;19.68;54.13;96291.72;4989932;28;20173;-73
2023/06/07 07:10:03;;;;;;;10.10;9.20;;;;;;;20.10;53.21;96286.44;4989200;28;20200;-71
2023/06/07 07:12:29;;;;;;;14.20;11.13;;;;;;;20.19;52.93;96287.50;4989711;28;20470;-72
2023/06/07 07:14:54;;;;;;;10.57;9.60;;;;;;;20.41;51.93;96287.38;4989065;28;20432;-70
2023/06/07 07:17:20;;;;;;;10.13;9.13;;;;;;;20.45;52.14;96282.59;4990364;28;20690;-71
2023/06/07 07:19:46;;;;;;;11.30;8.10;;;;;;;20.55;52.25;96280.88;4989874;28;20283;-72
2023/06/07 07:22:11;;;;;;;17.77;8.80;;;;;;;20.86;51.61;96278.25;4989960;28;20559;-72
2023/06/07 07:24:37;;;;;;;15.07;8.30;;;;;;;20.75;51.63;96284.50;4990452;28;20212;-73
2023/06/07 07:27:02;;;;;;;10.60;9.00;;;;;;;20.93;51.47;96284.72;4997142;28;20189;-72
2023/06/07 07:29:28;;;;;;;8.90;8.10;;;;;;;21.06;50.68;96279.16;4996767;28;20207;-73
2023/06/07 07:31:53;;;;;;;8.07;7.37;;;;;;;21.21;50.51;96282.28;4998102;28;20212;-75
2023/06/07 07:34:19;;;;;;;6.77;6.13;;;;;;;21.23;50.24;96272.31;4976586;28;20192;-71
2023/06/07 07:36:44;;;;;;;8.23;7.53;;;;;;;21.53;49.37;96271.44;4984073;28;20185;-73
2023/06/07 07:39:16;;;;;;;11.23;10.13;;;;;;;21.44;49.48;96278.44;4992669;28;20741;-71
2023/06/07 07:41:42;;;;;;;24.43;9.33;;;;;;;21.55;49.46;96282.81;4988920;28;20181;-71
2023/06/07 07:44:08;;;;;;;8.53;5.33;;;;;;;22.70;47.46;96277.59;4991095;28;20416;-72
2023/06/07 07:46:35;;;;;;;9.40;8.50;;;;;;;21.84;48.25;96276.66;4987587;28;20919;-72
2023/06/07 07:49:00;;;;;;;21.10;10.30;;;;;;;21.76;48.16;96283.56;4985996;28;20518;-71
2023/06/07 07:51:26;;;;;;;9.00;8.20;;;;;;;21.52;48.77;96275.06;4987118;28;20459;-69
2023/06/07 07:53:52;;;;;;;8.10;7.40;;;;;;;21.03;49.77;96282.09;4987081;28;20208;-70
2023/06/07 07:56:18;;;;;;;8.37;7.57;;;;;;;21.28;49.20;96278.94;4986983;28;20183;-71
2023/06/07 07:58:45;;;;;;;18.93;8.30;;;;;;;21.75;47.88;96275.66;4992338;28;20443;-70
2023/06/07 08:01:11;;;;;;;7.40;6.80;;;;;;;22.50;46.53;96271.44;4987372;28;20443;-70
2023/06/07 08:03:36;;;;;;;8.37;7.70;;;;;;;22.35;46.72;96275.56;4987103;28;20482;-71
2023/06/07 08:06:02;;;;;;;7.40;6.80;;;;;;;21.55;49.05;96274.81;4988212;28;20185;-71
2023/06/07 08:08:27;;;;;;;8.80;6.63;;;;;;;22.53;45.83;96275.63;4987706;28;20560;-71
2023/06/07 08:10:53;;;;;;;12.23;6.57;;;;;;;22.60;45.93;96274.91;4987275;28;20172;-70
2023/06/07 08:13:18;;;;;;;15.80;6.80;;;;;;;22.25;45.96;96270.19;4989328;28;20247;-71
2023/06/07 08:15:46;;;;;;;7.30;4.47;;;;;;;23.15;45.72;96273.34;4991520;28;20271;-70
2023/06/07 08:18:11;;;;;;;27.17;7.77;;;;;;;23.48;43.35;96263.88;4992266;28;20907;-71
2023/06/07 08:20:37;;;;;;;9.00;5.40;;;;;;;23.78;43.38;96261.84;4991455;28;20408;-73
2023/06/07 08:23:03;;;;;;;39.10;7.87;;;;;;;23.62;41.88;96262.50;4991379;28;20326;-71
2023/06/07 08:25:28;;;;;;;8.17;6.80;;;;;;;23.85;41.90;96255.72;4991212;28;20195;-71
2023/06/07 08:27:54;;;;;;;14.90;6.53;;;;;;;23.60;43.04;96264.50;4991192;28;20263;-70
2023/06/07 08:30:20;;;;;;;7.67;6.60;;;;;;;22.97;44.16;96268.75;4991380;28;20189;-72
2023/06/07 08:32:45;;;;;;;13.47;5.93;;;;;;;22.93;44.73;96269.19;4991408;28;20251;-71
2023/06/07 08:35:11;;;;;;;5.00;4.60;;;;;;;22.92;41.75;96267.50;4990699;28;20177;-72
2023/06/07 08:37:37;;;;;;;6.43;4.80;;;;;;;23.46;43.89;96264.00;4993712;28;20176;-73
2023/06/07 08:40:05;;;;;;;8.43;4.50;;;;;;;23.53;42.43;96258.03;5002246;28;20546;-71
2023/06/07 08:42:32;;;;;;;8.60;5.57;;;;;;;23.99;41.65;96256.19;4998538;28;20252;-71
2023/06/07 08:44:58;;;;;;;8.10;5.30;;;;;;;24.11;41.84;96257.63;4996159;28;20769;-72
2023/06/07 08:47:24;;;;;;;4.70;4.30;;;;;;;23.84;38.83;96262.09;4994393;28;20428;-70
2023/06/07 08:49:55;;;;;;;5.27;4.70;;;;;;;23.24;39.75;96259.94;4990833;28;20239;-69
2023/06/07 08:52:22;;;;;;;8.50;4.30;;;;;;;24.03;38.36;96265.63;4991773;28;20200;-71
2023/06/07 08:54:49;;;;;;;7.53;5.10;;;;;;;23.99;38.43;96270.41;4991427;28;20418;-70
2023/06/07 08:57:17;;;;;;;10.80;4.80;;;;;;;23.95;39.53;96262.84;4987902;28;20412;-69
2023/06/07 08:59:45;;;;;;;7.37;5.00;;;;;;;23.62;39.51;96268.72;4990409;28;20806;-71
2023/06/07 09:02:12;;;;;;;32.93;8.80;;;;;;;23.49;39.23;96272.75;4990717;28;21258;-68
2023/06/07 09:04:39;;;;;;;12.00;5.30;;;;;;;23.48;39.72;96276.41;4990320;28;20513;-70
2023/06/07 09:07:06;;;;;;;11.80;5.07;;;;;;;24.03;38.50;96270.97;4994046;28;20508;-71
2023/06/07 09:09:31;;;;;;;43.50;7.63;;;;;;;23.90;38.51;96263.31;4990527;28;20463;-70
2023/06/07 09:11:57;;;;;;;11.57;5.20;;;;;;;23.14;39.89;96272.50;4990865;28;21019;-69
2023/06/07 09:14:22;;;;;;;7.40;4.40;;;;;;;23.01;38.15;96275.53;4991151;28;20173;-70
2023/06/07 09:17:00;;;;;;;11.03;5.10;;;;;;;22.88;38.97;96271.47;4991005;28;20177;-70
2023/06/07 09:19:33;;;;;;;13.50;4.10;;;;;;;23.04;38.26;96274.38;4990170;28;20197;-72
2023/06/07 09:22:00;;;;;;;17.87;5.33;;;;;;;23.90;37.24;96265.97;4989788;28;20519;-72
2023/06/07 09:24:30;;;;;;;5.63;4.10;;;;;;;23.88;36.40;96271.50;4988892;28;20419;-70
2023/06/07 09:26:56;;;;;;;16.17;5.00;;;;;;;23.56;36.35;96269.31;4990257;28;21179;-71
2023/06/07 09:29:22;;;;;;;13.53;5.03;;;;;;;24.05;36.12;96263.63;4990840;28;20908;-70
2023/06/07 09:31:48;;;;;;;16.17;5.37;;;;;;;24.57;35.33;96263.72;4990716;28;20463;-71
2023/06/07 09:34:24;;;;;;;13.47;5.80;;;;;;;24.94;33.47;96259.88;4990006;28;20180;-72
2023/06/07 09:36:57;;;;;;;11.33;4.87;;;;;;;25.07;31.97;96271.03;4989967;28;20424;-70
2023/06/07 09:39:27;;;;;;;10.23;4.27;;;;;;;24.74;32.64;96258.44;4990366;28;20526;-71
2023/06/07 09:41:55;;;;;;;11.97;5.10;;;;;;;24.88;33.67;96255.19;4988798;28;20416;-70
2023/06/07 09:44:31;;;;;;;10.10;5.30;;;;;;;25.15;32.66;96252.25;4990157;28;20964;-70
2023/06/07 09:46:57;;;;;;;14.93;5.10;;;;;;;25.32;32.57;96257.72;4990216;28;20499;-71
2023/06/07 09:49:26;;;;;;;5.10;4.63;;;;;;;24.14;34.83;96254.63;4988432;28;20440;-70
2023/06/07 09:51:55;;;;;;;11.33;4.60;;;;;;;23.90;35.83;96254.44;4989882;28;20452;-71
2023/06/07 09:54:39;;;;;;;11.53;4.50;;;;;;;24.54;33.95;96247.91;4989750;28;20424;-71
2023/06/07 09:57:10;;;;;;;7.97;4.70;;;;;;;23.97;34.71;96248.28;4990385;28;20953;-71
2023/06/07 09:59:37;;;;;;;11.13;4.47;;;;;;;24.47;34.10;96244.19;4990275;28;20999;-72
2023/06/07 10:02:24;;;;;;;12.07;5.40;;;;;;;24.69;34.21;96243.66;4991467;28;20408;-71
2023/06/07 10:04:50;;;;;;;11.03;5.40;;;;;;;24.90;33.42;96247.81;4989100;28;20499;-72
2023/06/07 10:07:18;;;;;;;7.40;4.70;;;;;;;25.06;34.21;96242.53;4989880;28;20420;-71
2023/06/07 10:09:45;;;;;;;7.10;4.60;;;;;;;25.48;33.27;96243.53;4989994;28;20428;-70
2023/06/07 10:12:12;;;;;;;15.70;5.33;;;;;;;24.92;32.54;96245.78;4989520;28;20459;-72
2023/06/07 10:14:40;;;;;;;7.13;4.43;;;;;;;24.40;33.71;96243.97;4989400;28;20496;-69
2023/06/07 10:17:10;;;;;;;6.80;4.60;;;;;;;23.91;34.50;96242.72;4991424;28;20464;-71
2023/06/07 10:19:46;;;;;;;9.73;4.53;;;;;;;24.17;34.29;96240.09;4990455;28;20428;-71
2023/06/07 10:22:24;;;;;;;7.17;4.70;;;;;;;23.67;34.43;96239.63;4989823;28;20427;-71
2023/06/07 10:25:23;;;;;;;7.50;4.90;;;;;;;23.85;34.41;96241.47;4989334;28;20412;-70
2023/06/07 10:28:10;;;;;;;21.40;6.43;;;;;;;24.00;34.68;96231.06;4988571;28;20449;-71
2023/06/07 10:30:39;;;;;;;7.40;4.37;;;;;;;23.60;35.55;96237.72;4989178;28;20396;-70
2023/06/07 10:33:04;;;;;;;12.37;6.77;;;;;;;23.72;35.66;96227.59;4988997;28;20563;-71
2023/06/07 10:35:31;;;;;;;6.67;4.60;;;;;;;24.03;35.01;96228.09;4988561;28;20419;-70
2023/06/07 10:37:57;;;;;;;13.20;4.63;;;;;;;23.43;35.56;96226.84;4989516;28;20275;-71
2023/06/07 10:40:25;;;;;;;20.00;8.50;;;;;;;23.19;35.52;96235.41;4989202;28;20558;-72
2023/06/07 10:42:52;;;;;;;20.53;6.23;;;;;;;23.70;35.00;96233.13;4989505;28;20252;-71
2023/06/07 10:45:19;;;;;;;8.57;4.80;;;;;;;23.19;35.67;96230.06;4989184;28;20427;-70
2023/06/07 10:47:46;;;;;;;7.23;4.63;;;;;;;23.42;35.79;96227.81;4989245;28;20802;-71
2023/06/07 10:50:26;;;;;;;5.60;5.00;;;;;;;23.34;35.82;96218.84;4988619;28;20855;-71
2023/06/07 10:52:56;;;;;;;4.97;4.47;;;;;;;23.73;35.18;96216.72;4988644;28;20522;-70
2023/06/07 10:55:27;;;;;;;5.97;5.47;;;;;;;24.07;34.80;96210.66;4988809;28;20412;-71
2023/06/07 10:57:53;;;;;;;5.83;5.10;;;;;;;24.45;33.92;96212.13;4988854;28;20417;-71
2023/06/07 11:00:30;;;;;;;6.00;5.13;;;;;;;24.22;33.83;96205.59;4988750;28;20457;-71
2023/06/07 11:03:04;;;;;;;7.03;5.27;;;;;;;24.29;34.16;96212.84;4988914;28;21066;-68
2023/06/07 11:05:57;;;;;;;12.63;5.67;;;;;;;24.27;34.10;96214.84;4988414;28;20506;-71
2023/06/07 11:08:28;;;;;;;7.00;5.43;;;;;;;24.09;34.37;96206.00;4988736;28;20412;-71
2023/06/07 11:11:00;;;;;;;9.93;4.47;;;;;;;24.22;34.01;96208.28;4988597;28;20778;-70
2023/06/07 11:13:44;;;;;;;6.73;4.73;;;;;;;24.50;33.75;96203.66;4988371;28;20981;-71
2023/06/07 11:16:25;;;;;;;5.23;4.70;;;;;;;23.89;34.56;96213.38;4988692;28;20420;-72
2023/06/07 11:18:55;;;;;;;5.57;4.97;;;;;;;23.76;34.93;96218.28;4988700;28;20431;-72
2023/06/07 11:21:20;;;;;;;13.00;6.30;;;;;;;23.28;36.08;96211.41;4988650;28;21083;-72
2023/06/07 11:24:06;;;;;;;8.63;5.30;;;;;;;23.50;35.62;96216.31;4988330;28;20614;-72
2023/06/07 11:26:35;;;;;;;6.37;5.10;;;;;;;23.34;36.19;96213.47;4988419;28;20191;-71
2023/06/07 11:29:01;;;;;;;7.20;5.50;;;;;;;23.01;36.05;96208.63;4988276;28;20450;-71